CheckWX is a tool to help pilots better visualize weather data.  It is not intended as a substitute for an official pre-flight weather briefing.

06:55:14 UTC

CYBN TAF
CFB Borden Heliport
Borden, Canada
TAF CYBN 172330Z 1800/1812 VRB03KT P6SM FEW050 SCT090 TEMPO 1800/1812 BKN050 BKN090 RMK FCST BASED ON AUTO OBS. NXT FCST BY 180600Z

Jun-18@
00:00 UTC

Jun-18 @ 00:00 UTC

Jun-18@
12:00 UTC

Jun-18 @ 12:00 UTC

TAF CYBN 172330Z 1800/1812 VRB03KT P6SM FEW050 SCT090
Wind
  • Variable at 3 KTS
Cloud Levels
  • Few at 5,000' AGL
  • Scattered at 9,000' AGL

Jun-18@
00:00 UTC

Jun-18 @ 00:00 UTC

Jun-18@
12:00 UTC

Jun-18 @ 12:00 UTC

TEMPO 1800/1812 BKN050 BKN090 RMK FCST BASED ON AUTO OBS. NXT FCST BY 180600Z

Temporary

Temporary Changes expected for less than half the time period

Cloud Levels
  • Broken at 5,000' AGL
  • Broken at 9,000' AGL